Murdock, Nebraska
Current Conditions -  °F | °C
As of 10:35 AM on Friday 31 Oct 2014 (Local Time) from KPMV Reporting Station
Clear Clear  
Wind Chill: 25°   Ceiling: Unl
Heat Index: 33°   Visibility: 10mi
Dew Point: 18°   Wind: 9mph
Humidity: 55%   Direction: 10°N
Pressure: 30.56"   Gusts: 18mph
Location:  40.93°N, 96.28°W
Report Text: KPMV 311535Z AUTO 01008G16KT 10SM CLR 01/M08 A3056 RMK AO2 T00051077
Loading
Personal Weather Stations






























Interactive Weather Map
Tropical Storm Tracking
New forecast layout! Learn more

10-Day Weather Forecast

Advertisements
Track Severe Weather on mobile